Cosco Tengfei — HPMO — position and weather

sailwx.info

Track history (hours):
 
Tides and Currents Weather Stations Pressure Air Temp Water Temp Dewpoint Dewpoint Depression Visibility Wind Speed Wind Dir Waves Ship Positions

Cosco Tengfei

Last reported at 2014-Oct-23 09:29 UTC. Time now 2014-Oct-23 09:37 UTC.
Position N 23°01' E 113°32'.

Length 183 m; draft 9.2 m.

Type: Cargo ship. MMSI: 355518000.

Date/timePositionNaut miles runAvg speedWind from/ knotsBaromVisibWave heightAir tempDewpointWater temp
2014-Oct-23 09:29N 23°01' E 113°32'0 0.0
2014-Oct-23 08:29N 23°01' E 113°32'0 0.0
2014-Oct-23 07:29N 23°01' E 113°32'0 0.0
2014-Oct-23 06:29N 23°01' E 113°32'0 0.0
2014-Oct-23 05:29N 23°01' E 113°32'0 0.0
2014-Oct-23 04:12N 23°01' E 113°32'3 5.1
2014-Oct-23 03:33N 22°58' E 113°33'10 9.8
2014-Oct-23 02:33N 22°49' E 113°36'1311.0
2014-Oct-23 01:23N 22°37' E 113°42'1113.3
2014-Oct-23 00:33N 22°26' E 113°45'22 2.3
2014-Oct-22 15:07N 22°06' E 113°52'0 0.0
2014-Oct-22 14:19N 22°06' E 113°52'0 0.0
2014-Oct-22 13:19N 22°06' E 113°52'0 0.0
2014-Oct-22 12:19N 22°06' E 113°52'0 0.0
2014-Oct-22 11:25N 22°06' E 113°52'0 0.0
2014-Oct-22 10:19N 22°06' E 113°52'0 0.1
2014-Oct-22 09:27N 22°06' E 113°52'6 6.5
2014-Oct-22 08:32N 22°08' E 113°58'1312.8
2014-Oct-22 07:32N 22°08' E 114°12'1210.1
2014-Oct-22 06:20N 22°19' E 114°07'0 0.0
2014-Oct-21 22:29N 22°20' E 114°07'  
2014-Oct-17 18:26N 01°15' E 104°05'1415.7
2014-Oct-17 17:33N 01°12' E 103°52'9 8.5
2014-Oct-17 16:33N 01°17' E 103°45'0 0.1
2014-Oct-17 13:27N 01°17' E 103°45'0 0.0
2014-Oct-17 12:18N 01°17' E 103°45'0 0.0
2014-Oct-17 11:33N 01°17' E 103°45'0 0.0
2014-Oct-17 10:27N 01°17' E 103°45'1 0.1
2014-Oct-17 04:32N 01°16' E 103°45'  
Track history (hours):
 
Tides and Currents Weather Stations Pressure Air Temp Water Temp Dewpoint Dewpoint Depression Visibility Wind Speed Wind Dir Waves Ship Positions

Cosco Tengfei

Last reported at 2014-Oct-23 09:29 UTC. Time now 2014-Oct-23 09:37 UTC.
Position N 23°01' E 113°32'.

Length 183 m; draft 9.2 m.

Type: Cargo ship. MMSI: 355518000.

Date/timePositionNaut miles runAvg speedWind from/ knotsBaromVisibWave heightAir tempDewpointWater temp
2014-Oct-23 09:29N 23°01' E 113°32'0 0.0
2014-Oct-23 08:29N 23°01' E 113°32'0 0.0
2014-Oct-23 07:29N 23°01' E 113°32'0 0.0
2014-Oct-23 06:29N 23°01' E 113°32'0 0.0
2014-Oct-23 05:29N 23°01' E 113°32'0 0.0
2014-Oct-23 04:12N 23°01' E 113°32'3 5.1
2014-Oct-23 03:33N 22°58' E 113°33'10 9.8
2014-Oct-23 02:33N 22°49' E 113°36'1311.0
2014-Oct-23 01:23N 22°37' E 113°42'1113.3
2014-Oct-23 00:33N 22°26' E 113°45'22 2.3
2014-Oct-22 15:07N 22°06' E 113°52'0 0.0
2014-Oct-22 14:19N 22°06' E 113°52'0 0.0
2014-Oct-22 13:19N 22°06' E 113°52'0 0.0
2014-Oct-22 12:19N 22°06' E 113°52'0 0.0
2014-Oct-22 11:25N 22°06' E 113°52'0 0.0
2014-Oct-22 10:19N 22°06' E 113°52'0 0.1
2014-Oct-22 09:27N 22°06' E 113°52'6 6.5
2014-Oct-22 08:32N 22°08' E 113°58'1312.8
2014-Oct-22 07:32N 22°08' E 114°12'1210.1
2014-Oct-22 06:20N 22°19' E 114°07'0 0.0
2014-Oct-21 22:29N 22°20' E 114°07'  
2014-Oct-17 18:26N 01°15' E 104°05'1415.7
2014-Oct-17 17:33N 01°12' E 103°52'9 8.5
2014-Oct-17 16:33N 01°17' E 103°45'0 0.1
2014-Oct-17 13:27N 01°17' E 103°45'0 0.0
2014-Oct-17 12:18N 01°17' E 103°45'0 0.0
2014-Oct-17 11:33N 01°17' E 103°45'0 0.0
2014-Oct-17 10:27N 01°17' E 103°45'1 0.1
2014-Oct-17 04:32N 01°16' E 103°45'  

Dump ship's entire track history